Time;durP1;ratioP1;P1;durP2;ratioP2;P2;SDS_P1;SDS_P2;PMS_P1;PMS_P2;Temp;Humidity;BMP_temperature;BMP_pressure;BME280_temperature;BME280_humidity;BME280_pressure;Samples;Min_cycle;Max_cycle;Signal;HPM_P1;HPM_P2
2022/07/19 00:00:47;;;;;;;5.77;2.60;;;19.00;92.50;;;;;;5070095;28;20645;-87
2022/07/19 00:03:14;;;;;;;1.20;1.10;;;18.90;92.50;;;;;;5070884;28;20653;-86
2022/07/19 00:05:40;;;;;;;6.30;2.17;;;18.90;92.60;;;;;;5067208;28;20192;-86
2022/07/19 00:08:05;;;;;;;1.63;1.53;;;18.80;93.00;;;;;;5063595;28;20441;-86
2022/07/19 00:10:31;;;;;;;1.73;1.73;;;18.80;93.20;;;;;;5071201;28;20547;-86
2022/07/19 00:12:57;;;;;;;3.07;1.97;;;18.70;93.60;;;;;;5071274;28;20198;-86
2022/07/19 00:15:23;;;;;;;1.50;1.40;;;18.70;93.80;;;;;;5058999;28;20175;-86
2022/07/19 00:17:49;;;;;;;6.40;1.80;;;18.60;94.00;;;;;;5071592;28;20203;-87
2022/07/19 00:20:17;;;;;;;4.10;2.03;;;18.50;94.20;;;;;;5070408;28;20655;-86
2022/07/19 00:22:43;;;;;;;4.90;2.40;;;18.50;94.30;;;;;;5070656;28;20497;-86
2022/07/19 00:25:09;;;;;;;2.30;2.17;;;18.50;94.40;;;;;;5057561;28;20862;-86
2022/07/19 00:27:35;;;;;;;2.13;1.63;;;18.40;94.60;;;;;;5071590;28;20562;-86
2022/07/19 00:30:01;;;;;;;1.53;1.20;;;18.40;94.60;;;;;;5072095;28;20453;-86
2022/07/19 00:32:26;;;;;;;11.70;1.87;;;18.40;94.80;;;;;;5070808;28;20664;-86
2022/07/19 00:34:52;;;;;;;1.63;1.53;;;18.30;95.10;;;;;;5070620;28;20172;-86
2022/07/19 00:37:18;;;;;;;1.73;1.70;;;18.30;95.10;;;;;;5057941;28;20179;-86
2022/07/19 00:39:43;;;;;;;2.80;2.60;;;18.20;95.30;;;;;;5070163;28;20278;-86
2022/07/19 00:42:09;;;;;;;1.93;1.50;;;18.20;95.50;;;;;;5065489;28;20188;-86
2022/07/19 00:44:34;;;;;;;3.63;1.17;;;18.20;95.60;;;;;;5061887;28;20182;-86
2022/07/19 00:47:01;;;;;;;2.30;2.10;;;18.10;95.60;;;;;;5058169;28;20186;-86
2022/07/19 00:49:27;;;;;;;1.67;1.33;;;18.10;95.50;;;;;;5070137;28;20199;-86
2022/07/19 00:51:53;;;;;;;1.53;1.43;;;18.00;95.70;;;;;;5070253;28;20440;-86
2022/07/19 00:54:20;;;;;;;2.00;1.53;;;18.00;95.80;;;;;;5070271;28;20233;-86
2022/07/19 00:56:48;;;;;;;1.57;1.40;;;17.90;95.80;;;;;;5064055;28;20480;-86
2022/07/19 00:59:14;;;;;;;5.03;2.80;;;17.90;95.70;;;;;;5068036;28;20476;-86
2022/07/19 01:01:40;;;;;;;2.80;1.90;;;17.90;96.00;;;;;;5070218;28;20927;-86
2022/07/19 01:04:06;;;;;;;1.43;1.40;;;17.80;96.00;;;;;;5070073;28;20675;-86
2022/07/19 01:06:32;;;;;;;6.13;1.73;;;17.80;96.10;;;;;;5070615;28;20421;-86
2022/07/19 01:08:57;;;;;;;3.00;2.37;;;17.70;96.20;;;;;;5070606;28;20206;-86
2022/07/19 01:11:23;;;;;;;2.20;2.03;;;17.70;96.50;;;;;;5070335;28;20175;-86
2022/07/19 01:13:49;;;;;;;1.27;1.20;;;17.60;96.70;;;;;;5069825;28;20203;-86
2022/07/19 01:16:15;;;;;;;6.00;1.13;;;17.60;96.80;;;;;;5069682;28;20187;-86
2022/07/19 01:18:41;;;;;;;1.80;1.40;;;17.50;96.70;;;;;;5071110;28;20241;-86
2022/07/19 01:21:07;;;;;;;2.70;1.43;;;17.50;96.90;;;;;;5069598;28;20812;-85
2022/07/19 01:23:33;;;;;;;2.00;1.47;;;17.40;96.80;;;;;;5069484;28;20316;-84
2022/07/19 01:25:59;;;;;;;1.67;1.47;;;17.40;96.80;;;;;;5069629;28;20999;-86
2022/07/19 01:28:24;;;;;;;1.40;1.40;;;17.40;96.80;;;;;;5068955;28;20203;-86
2022/07/19 01:30:50;;;;;;;2.40;1.53;;;17.30;96.80;;;;;;5057222;28;20266;-86
2022/07/19 01:33:17;;;;;;;2.50;1.97;;;17.30;96.80;;;;;;5068425;28;20210;-86
2022/07/19 01:35:43;;;;;;;1.33;1.23;;;17.30;97.00;;;;;;5069312;28;20943;-86
2022/07/19 01:38:09;;;;;;;3.80;1.70;;;17.20;97.00;;;;;;5069133;28;20451;-86
2022/07/19 01:40:34;;;;;;;1.33;1.27;;;17.20;97.00;;;;;;5070523;28;20179;-86
2022/07/19 01:43:00;;;;;;;2.10;1.43;;;17.20;96.80;;;;;;5069431;28;20232;-86
2022/07/19 01:45:26;;;;;;;1.53;1.50;;;17.20;96.70;;;;;;5070926;28;20238;-86
2022/07/19 01:47:51;;;;;;;2.70;1.40;;;17.20;96.60;;;;;;5069606;28;20203;-86
2022/07/19 01:50:17;;;;;;;1.20;1.10;;;17.20;96.40;;;;;;5069677;28;20670;-85
2022/07/19 01:52:44;;;;;;;2.17;1.73;;;17.20;96.40;;;;;;5069373;28;20203;-86
2022/07/19 01:55:09;;;;;;;2.17;1.30;;;17.20;96.40;;;;;;5070045;28;20417;-86
2022/07/19 01:57:35;;;;;;;3.93;1.37;;;17.20;96.50;;;;;;5069720;28;20551;-86
2022/07/19 02:00:01;;;;;;;1.73;1.40;;;17.20;96.30;;;;;;5069563;28;20200;-86
2022/07/19 02:02:26;;;;;;;1.27;1.20;;;17.20;96.30;;;;;;5069310;28;20179;-86
2022/07/19 02:04:52;;;;;;;1.83;1.10;;;17.20;96.30;;;;;;5069086;28;20179;-86
2022/07/19 02:07:17;;;;;;;8.10;2.03;;;17.20;96.30;;;;;;5067717;28;20179;-86
2022/07/19 02:09:43;;;;;;;4.70;1.83;;;17.20;96.30;;;;;;5069205;28;20529;-86
2022/07/19 02:12:09;;;;;;;3.03;1.50;;;17.10;96.40;;;;;;5068634;28;20668;-86
2022/07/19 02:14:34;;;;;;;2.20;1.37;;;17.10;96.40;;;;;;5068857;28;20183;-86
2022/07/19 02:17:00;;;;;;;1.17;1.13;;;17.10;96.50;;;;;;5067811;28;20179;-86
2022/07/19 02:19:25;;;;;;;1.73;1.63;;;17.10;96.50;;;;;;5068891;28;20218;-86
2022/07/19 02:21:51;;;;;;;1.23;1.20;;;17.10;96.60;;;;;;5070145;28;20184;-86
2022/07/19 02:24:16;;;;;;;1.53;1.30;;;17.10;96.70;;;;;;5068822;28;20167;-86
2022/07/19 02:26:42;;;;;;;3.17;1.03;;;17.10;96.70;;;;;;5068338;28;20183;-86
2022/07/19 02:29:09;;;;;;;1.00;0.90;;;17.10;96.80;;;;;;5068399;28;20214;-86
2022/07/19 02:31:35;;;;;;;1.33;1.23;;;17.00;96.70;;;;;;5068874;28;20603;-85
2022/07/19 02:34:00;;;;;;;1.30;1.20;;;17.00;96.70;;;;;;5068948;28;20475;-86
2022/07/19 02:36:26;;;;;;;2.43;2.00;;;17.00;96.50;;;;;;5068608;28;20175;-86
2022/07/19 02:38:51;;;;;;;1.60;1.57;;;17.00;96.40;;;;;;5069088;28;20195;-86
2022/07/19 02:41:17;;;;;;;1.37;1.30;;;17.00;96.40;;;;;;5068977;28;20661;-86
2022/07/19 02:43:43;;;;;;;6.53;1.83;;;17.00;96.40;;;;;;5070971;28;20194;-86
2022/07/19 02:46:09;;;;;;;1.43;1.33;;;17.00;96.40;;;;;;5068971;28;20636;-86
2022/07/19 02:48:34;;;;;;;1.20;1.10;;;17.00;96.30;;;;;;5070110;28;20452;-86
2022/07/19 02:51:00;;;;;;;5.63;1.47;;;17.00;96.40;;;;;;5068899;28;20191;-85
2022/07/19 02:53:26;;;;;;;1.20;1.10;;;17.00;96.50;;;;;;5068682;28;20206;-85
2022/07/19 02:55:51;;;;;;;3.73;1.83;;;17.00;96.50;;;;;;5060985;28;20188;-86
2022/07/19 02:58:17;;;;;;;3.60;2.70;;;17.00;96.70;;;;;;5062903;28;20218;-86
2022/07/19 03:00:42;;;;;;;1.40;1.30;;;17.00;96.80;;;;;;5069029;28;20529;-85
2022/07/19 03:05:55;;;;;;;4.30;1.57;;;16.90;97.00;;;;;;5069728;28;20292;-85
2022/07/19 03:08:21;;;;;;;1.93;1.30;;;16.90;97.00;;;;;;5067737;28;20448;-86
2022/07/19 03:10:46;;;;;;;1.10;1.00;;;16.80;97.20;;;;;;5068074;28;20422;-85
2022/07/19 03:13:12;;;;;;;1.80;1.30;;;16.80;97.30;;;;;;5067996;28;20211;-86
2022/07/19 03:15:38;;;;;;;2.07;1.40;;;16.80;97.30;;;;;;5055034;28;20544;-86
2022/07/19 03:18:04;;;;;;;2.37;2.17;;;16.80;97.30;;;;;;5068501;28;20217;-86
2022/07/19 03:20:30;;;;;;;1.67;1.60;;;16.70;97.30;;;;;;5072290;28;20179;-86
2022/07/19 03:22:55;;;;;;;1.53;1.20;;;16.70;97.30;;;;;;5071297;28;20436;-86
2022/07/19 03:25:21;;;;;;;2.43;1.77;;;16.70;97.30;;;;;;5073194;28;20183;-86
2022/07/19 03:27:48;;;;;;;1.83;1.63;;;16.60;97.30;;;;;;5070536;28;20445;-86
2022/07/19 03:30:14;;;;;;;1.20;1.10;;;16.60;97.30;;;;;;5073452;28;20305;-85
2022/07/19 03:32:39;;;;;;;2.20;1.83;;;16.60;97.30;;;;;;5072103;28;20504;-86
2022/07/19 03:35:06;;;;;;;1.27;1.17;;;16.60;97.30;;;;;;5071671;28;20838;-86
2022/07/19 03:37:31;;;;;;;1.57;1.30;;;16.60;97.30;;;;;;5071676;28;20183;-86
2022/07/19 03:39:57;;;;;;;1.27;1.20;;;16.60;97.30;;;;;;5071423;28;20483;-85
2022/07/19 03:42:22;;;;;;;2.07;1.93;;;16.50;97.30;;;;;;5071939;28;20216;-86
2022/07/19 03:44:48;;;;;;;2.17;1.73;;;16.50;97.30;;;;;;5071069;28;20187;-85
2022/07/19 03:47:14;;;;;;;1.70;1.47;;;16.50;97.30;;;;;;5072471;28;20640;-85
2022/07/19 03:49:39;;;;;;;1.83;1.73;;;16.50;97.30;;;;;;5070697;28;20240;-85
2022/07/19 03:52:05;;;;;;;5.30;1.50;;;16.50;97.30;;;;;;5071691;28;20644;-85
2022/07/19 03:54:30;;;;;;;1.30;1.20;;;16.50;97.30;;;;;;5070928;28;20266;-85
2022/07/19 03:56:56;;;;;;;5.10;2.37;;;16.50;97.30;;;;;;5072208;28;20191;-85
2022/07/19 03:59:25;;;;;;;3.53;1.73;;;16.50;97.30;;;;;;5071380;28;20202;-86
2022/07/19 04:01:51;;;;;;;2.37;2.17;;;16.50;97.30;;;;;;5071204;28;20298;-85
2022/07/19 04:04:16;;;;;;;1.50;1.40;;;16.60;97.30;;;;;;5069991;28;20457;-85
2022/07/19 04:06:42;;;;;;;2.83;2.17;;;16.60;97.30;;;;;;5064590;28;20421;-86
2022/07/19 04:09:08;;;;;;;2.03;1.90;;;16.60;97.30;;;;;;5071017;28;20191;-86
2022/07/19 04:11:33;;;;;;;2.00;1.57;;;16.70;97.30;;;;;;5071202;28;20264;-85
2022/07/19 04:13:59;;;;;;;1.20;1.17;;;16.70;97.30;;;;;;5070842;28;20325;-86
2022/07/19 04:16:24;;;;;;;3.80;1.93;;;16.70;97.30;;;;;;5070445;28;20237;-86
2022/07/19 04:18:50;;;;;;;2.13;1.83;;;16.70;97.30;;;;;;5070956;28;20186;-85
2022/07/19 04:21:15;;;;;;;1.40;1.40;;;16.80;97.30;;;;;;5071237;28;20249;-85
2022/07/19 04:23:41;;;;;;;1.53;1.13;;;16.80;97.30;;;;;;5071650;28;20197;-85
2022/07/19 04:26:07;;;;;;;1.20;1.07;;;16.80;97.30;;;;;;5070890;28;20246;-85
2022/07/19 04:28:32;;;;;;;2.27;2.10;;;16.80;97.30;;;;;;5068343;28;20591;-85
2022/07/19 04:30:58;;;;;;;4.80;1.90;;;16.80;97.30;;;;;;5069998;28;20186;-85
2022/07/19 04:33:23;;;;;;;3.57;1.77;;;16.80;97.30;;;;;;5069585;28;20256;-85
2022/07/19 04:35:49;;;;;;;1.60;1.50;;;16.80;97.30;;;;;;5070250;28;20205;-85
2022/07/19 04:38:14;;;;;;;1.47;1.40;;;16.90;97.30;;;;;;5070095;28;20202;-86
2022/07/19 04:40:40;;;;;;;1.77;1.17;;;16.90;97.30;;;;;;5070269;28;20285;-85
2022/07/19 04:43:06;;;;;;;1.43;1.10;;;16.90;97.30;;;;;;5070718;28;20209;-86
2022/07/19 04:45:32;;;;;;;1.23;1.13;;;17.00;97.30;;;;;;5069579;28;20222;-85
2022/07/19 04:47:57;;;;;;;1.30;1.23;;;17.00;97.30;;;;;;5070293;28;20437;-86
2022/07/19 04:50:23;;;;;;;1.30;1.20;;;17.10;97.30;;;;;;5070104;28;20662;-85
2022/07/19 04:52:48;;;;;;;6.83;1.80;;;17.10;97.30;;;;;;5070275;28;20734;-85
2022/07/19 04:55:14;;;;;;;1.70;1.47;;;17.20;97.30;;;;;;5070146;28;20672;-85
2022/07/19 04:57:40;;;;;;;1.27;1.17;;;17.20;97.30;;;;;;5056631;28;20195;-85
2022/07/19 05:00:11;;;;;;;2.30;1.83;;;17.20;97.30;;;;;;5070067;28;20617;-85
2022/07/19 05:02:37;;;;;;;8.10;2.17;;;17.30;97.30;;;;;;5063364;28;20186;-85
2022/07/19 05:05:04;;;;;;;1.43;1.33;;;17.30;97.30;;;;;;5064047;28;20427;-86
2022/07/19 05:07:30;;;;;;;3.80;1.60;;;17.40;97.30;;;;;;5067924;28;20438;-85
2022/07/19 05:09:56;;;;;;;1.77;1.67;;;17.40;97.30;;;;;;5071397;28;20435;-85
2022/07/19 05:12:22;;;;;;;8.83;2.20;;;17.50;97.30;;;;;;5069474;28;20205;-85
2022/07/19 05:14:48;;;;;;;2.40;1.83;;;17.50;97.30;;;;;;5069826;28;20471;-85
2022/07/19 05:17:14;;;;;;;3.30;1.50;;;17.60;97.10;;;;;;5070645;28;20420;-85
2022/07/19 05:19:40;;;;;;;1.50;1.43;;;17.70;97.20;;;;;;5057334;28;20233;-85
2022/07/19 05:22:05;;;;;;;1.90;1.67;;;17.80;96.90;;;;;;5069216;28;20421;-85
2022/07/19 05:24:31;;;;;;;1.43;1.33;;;17.90;96.50;;;;;;5069662;28;20183;-85
2022/07/19 05:26:56;;;;;;;2.33;2.13;;;18.00;96.10;;;;;;5069516;28;20175;-85
2022/07/19 05:29:22;;;;;;;3.03;2.20;;;18.10;95.90;;;;;;5069563;28;20225;-85
2022/07/19 05:31:48;;;;;;;1.73;1.20;;;18.20;95.80;;;;;;5069559;28;20178;-86
2022/07/19 05:34:13;;;;;;;2.57;1.80;;;18.30;95.70;;;;;;5062935;28;20218;-85
2022/07/19 05:36:39;;;;;;;1.80;1.70;;;18.40;95.50;;;;;;5063383;28;20175;-85
2022/07/19 05:39:05;;;;;;;5.77;2.30;;;18.40;95.20;;;;;;5069320;28;20604;-85
2022/07/19 05:41:31;;;;;;;1.17;1.07;;;18.50;95.10;;;;;;5068955;28;20171;-85
2022/07/19 05:43:56;;;;;;;1.10;1.00;;;18.60;94.90;;;;;;5069490;28;20178;-85
2022/07/19 05:46:22;;;;;;;1.10;1.00;;;18.70;94.80;;;;;;5069574;28;20202;-85
2022/07/19 05:48:48;;;;;;;1.60;1.50;;;18.80;94.60;;;;;;5069379;28;20206;-86
2022/07/19 05:51:14;;;;;;;1.50;1.40;;;18.90;94.40;;;;;;5069297;28;20217;-86
2022/07/19 05:53:39;;;;;;;1.77;1.63;;;19.00;94.40;;;;;;5062505;28;20776;-85
2022/07/19 05:56:06;;;;;;;1.50;1.40;;;19.10;93.90;;;;;;5063065;28;20220;-85
2022/07/19 05:58:31;;;;;;;2.50;1.70;;;19.30;93.60;;;;;;5069089;28;20217;-85
2022/07/19 06:03:41;;;;;;;4.50;2.03;;;19.50;92.70;;;;;;5070895;28;20186;-86
2022/07/19 06:06:07;;;;;;;2.03;1.27;;;19.60;92.20;;;;;;5065641;28;20794;-85
2022/07/19 06:08:33;;;;;;;1.27;1.20;;;19.70;92.00;;;;;;5069080;28;20203;-86
2022/07/19 06:10:58;;;;;;;1.50;1.43;;;19.80;91.50;;;;;;5068458;28;20666;-85
2022/07/19 06:13:24;;;;;;;2.60;1.60;;;20.00;91.30;;;;;;5056980;28;20203;-85
2022/07/19 06:15:50;;;;;;;1.87;1.27;;;20.10;90.30;;;;;;5070458;28;20441;-86
2022/07/19 06:18:16;;;;;;;2.03;1.63;;;20.30;89.60;;;;;;5069398;28;20227;-85
2022/07/19 06:20:42;;;;;;;1.60;1.50;;;20.40;88.90;;;;;;5068524;28;20927;-86
2022/07/19 06:23:07;;;;;;;1.50;1.40;;;20.50;88.60;;;;;;5068876;28;20453;-86
2022/07/19 06:25:33;;;;;;;2.13;1.57;;;20.70;87.80;;;;;;5068755;28;20595;-86
2022/07/19 06:27:59;;;;;;;1.63;1.53;;;20.90;88.00;;;;;;5054985;28;20554;-86
2022/07/19 06:30:24;;;;;;;3.13;1.40;;;21.00;87.40;;;;;;5070037;28;20329;-86
2022/07/19 06:32:50;;;;;;;1.20;1.10;;;21.10;87.80;;;;;;5068277;28;20736;-86
2022/07/19 06:35:15;;;;;;;2.13;2.00;;;21.20;87.50;;;;;;5066975;28;20204;-86
2022/07/19 06:37:41;;;;;;;1.30;1.30;;;21.30;87.10;;;;;;5056307;28;20276;-85
2022/07/19 06:40:07;;;;;;;1.93;1.40;;;21.50;87.10;;;;;;5068579;28;20175;-86
2022/07/19 06:42:33;;;;;;;2.60;1.47;;;21.60;86.00;;;;;;5070140;28;20180;-86
2022/07/19 06:45:01;;;;;;;3.37;2.60;;;21.70;85.30;;;;;;5069680;28;20413;-86
2022/07/19 06:47:30;;;;;;;2.03;1.60;;;21.90;85.50;;;;;;5070012;28;20224;-86
2022/07/19 06:49:56;;;;;;;2.27;1.60;;;22.10;84.00;;;;;;5068368;28;20417;-86
2022/07/19 06:52:21;;;;;;;3.13;1.43;;;22.20;83.30;;;;;;5068400;28;20942;-86
2022/07/19 06:54:47;;;;;;;1.20;1.10;;;22.30;82.60;;;;;;5071509;28;20417;-86
2022/07/19 06:57:12;;;;;;;3.23;1.47;;;22.50;82.20;;;;;;5072316;28;20186;-86
2022/07/19 06:59:38;;;;;;;2.00;1.90;;;22.70;81.40;;;;;;5072073;28;20202;-86
2022/07/19 07:02:04;;;;;;;3.13;2.00;;;22.90;81.80;;;;;;5072122;28;20441;-85
2022/07/19 07:04:30;;;;;;;1.47;1.17;;;23.00;81.00;;;;;;5059801;28;20270;-86
2022/07/19 07:06:56;;;;;;;4.93;1.70;;;23.10;80.70;;;;;;5072987;28;20185;-86
2022/07/19 07:09:22;;;;;;;2.03;1.90;;;23.30;80.80;;;;;;5072493;28;20439;-86
2022/07/19 07:11:48;;;;;;;1.73;1.10;;;23.40;80.10;;;;;;5072074;28;20417;-86
2022/07/19 07:14:13;;;;;;;11.60;2.80;;;23.50;79.40;;;;;;5072067;28;20207;-86
2022/07/19 07:16:39;;;;;;;1.33;0.90;;;23.70;77.80;;;;;;5071977;28;20186;-86
2022/07/19 07:19:05;;;;;;;1.40;1.33;;;23.80;78.60;;;;;;5071779;28;20579;-86
2022/07/19 07:21:34;;;;;;;2.67;2.10;;;23.90;78.90;;;;;;5072209;28;20175;-87
2022/07/19 07:24:01;;;;;;;1.83;1.77;;;24.10;78.70;;;;;;5071759;28;20179;-87
2022/07/19 07:26:27;;;;;;;1.53;1.20;;;24.10;78.90;;;;;;5072339;28;20421;-86
2022/07/19 07:28:52;;;;;;;1.10;1.00;;;24.30;78.90;;;;;;5071555;28;20485;-87
2022/07/19 07:31:18;;;;;;;1.30;1.20;;;24.40;78.70;;;;;;5071883;28;20179;-87
2022/07/19 07:33:43;;;;;;;1.83;1.57;;;24.50;77.20;;;;;;5072502;28;20215;-86
2022/07/19 07:36:09;;;;;;;3.07;2.17;;;24.60;77.20;;;;;;5072977;28;20556;-86
2022/07/19 07:38:34;;;;;;;1.93;1.70;;;24.70;78.50;;;;;;5071543;28;20229;-87
2022/07/19 07:41:00;;;;;;;3.57;2.40;;;24.80;77.20;;;;;;5071632;28;20171;-87
2022/07/19 07:43:25;;;;;;;1.40;1.30;;;24.90;76.90;;;;;;5071337;28;20483;-87
2022/07/19 07:45:51;;;;;;;1.73;1.40;;;25.00;77.20;;;;;;5068198;28;20266;-87
2022/07/19 07:48:17;;;;;;;2.47;1.30;;;25.10;76.30;;;;;;5061517;28;20236;-87
2022/07/19 07:50:42;;;;;;;1.90;1.77;;;25.30;75.90;;;;;;5071874;28;20634;-87
2022/07/19 07:53:08;;;;;;;2.03;1.20;;;25.40;75.70;;;;;;5071545;28;20195;-87
2022/07/19 07:55:38;;;;;;;2.80;1.87;;;25.50;76.00;;;;;;5071778;28;20175;-87
2022/07/19 07:58:04;;;;;;;1.73;1.63;;;25.60;76.00;;;;;;5071749;28;20278;-87
2022/07/19 08:00:30;;;;;;;3.23;1.57;;;25.70;76.50;;;;;;5071375;28;20449;-87
2022/07/19 08:02:55;;;;;;;1.73;1.63;;;25.80;75.30;;;;;;5071156;28;20210;-87
2022/07/19 08:05:24;;;;;;;1.23;1.10;;;25.90;77.30;;;;;;5069420;28;20185;-87
2022/07/19 08:07:49;;;;;;;1.43;1.33;;;26.10;76.80;;;;;;5051150;28;20211;-87
2022/07/19 08:10:15;;;;;;;1.03;0.93;;;26.20;74.50;;;;;;5069053;28;20452;-87
2022/07/19 08:12:41;;;;;;;1.87;1.10;;;26.40;74.10;;;;;;5070433;28;20199;-87
2022/07/19 08:15:07;;;;;;;2.10;1.27;;;26.50;74.90;;;;;;5072380;28;20259;-87
2022/07/19 08:17:33;;;;;;;2.20;1.47;;;26.60;75.80;;;;;;5070835;28;20182;-87
2022/07/19 08:19:59;;;;;;;2.73;1.40;;;26.80;75.20;;;;;;5057393;28;20414;-87
2022/07/19 08:22:25;;;;;;;1.73;1.57;;;26.90;75.40;;;;;;5070656;28;20210;-87
2022/07/19 08:24:50;;;;;;;3.37;1.80;;;27.00;75.90;;;;;;5070807;28;20508;-87
2022/07/19 08:27:16;;;;;;;3.50;1.30;;;27.10;75.20;;;;;;5070233;28;20210;-87
2022/07/19 08:29:41;;;;;;;3.10;1.47;;;27.20;73.70;;;;;;5070475;28;20768;-87
2022/07/19 08:32:07;;;;;;;1.57;1.47;;;27.30;73.90;;;;;;5071780;28;20179;-87
2022/07/19 08:34:33;;;;;;;7.23;1.43;;;27.40;73.70;;;;;;5070629;28;20224;-87
2022/07/19 08:37:00;;;;;;;1.60;1.20;;;27.60;72.60;;;;;;5070337;28;20199;-87
2022/07/19 08:39:25;;;;;;;1.30;1.20;;;27.70;72.40;;;;;;5070174;28;20206;-87
2022/07/19 08:41:51;;;;;;;1.33;1.27;;;27.80;72.20;;;;;;5057118;28;20787;-88
2022/07/19 08:44:18;;;;;;;1.53;1.50;;;28.00;72.90;;;;;;5070888;28;20194;-87
2022/07/19 08:46:44;;;;;;;1.40;1.30;;;28.00;72.60;;;;;;5070058;28;20189;-87
2022/07/19 08:49:10;;;;;;;3.00;1.57;;;28.10;72.70;;;;;;5070322;28;20949;-87
2022/07/19 08:51:36;;;;;;;1.30;1.20;;;28.30;71.70;;;;;;5071310;28;20410;-87
2022/07/19 08:54:02;;;;;;;1.80;1.47;;;28.40;70.10;;;;;;5069908;28;20485;-87
2022/07/19 08:59:13;;;;;;;2.80;1.97;;;28.60;70.00;;;;;;5071471;28;20956;-87
2022/07/19 09:01:38;;;;;;;1.30;1.20;;;28.80;70.00;;;;;;5069888;28;20401;-87
2022/07/19 09:04:13;;;;;;;0.97;0.87;;;28.90;70.80;;;;;;5070065;28;20536;-87
2022/07/19 09:06:45;;;;;;;2.50;1.53;;;29.10;69.50;;;;;;5069973;28;20202;-87
2022/07/19 09:09:11;;;;;;;1.77;1.67;;;29.20;68.20;;;;;;5069612;28;20803;-87
2022/07/19 09:11:48;;;;;;;2.33;1.60;;;29.30;68.90;;;;;;5070124;28;20930;-88
2022/07/19 09:14:14;;;;;;;1.23;1.10;;;29.40;69.20;;;;;;5056356;28;20995;-88
2022/07/19 09:17:03;;;;;;;1.30;1.20;;;29.50;68.60;;;;;;5069742;28;20428;-88
2022/07/19 09:19:40;;;;;;;2.30;2.00;;;29.70;67.40;;;;;;5070853;28;20433;-86
2022/07/19 09:22:09;;;;;;;4.40;1.40;;;29.80;67.20;;;;;;5069688;28;20421;-87
2022/07/19 09:24:48;;;;;;;2.40;1.60;;;29.90;66.80;;;;;;5070819;28;20509;-87
2022/07/19 09:27:17;;;;;;;1.90;1.23;;;30.00;67.90;;;;;;5056501;28;20498;-88
2022/07/19 09:29:44;;;;;;;2.20;1.30;;;30.10;67.10;;;;;;5069159;28;20465;-87
2022/07/19 09:32:14;;;;;;;1.77;1.67;;;30.30;67.40;;;;;;5061757;28;20510;-88
2022/07/19 09:34:53;;;;;;;2.83;1.40;;;30.40;67.90;;;;;;5057039;28;20422;-88
2022/07/19 09:37:20;;;;;;;1.90;1.80;;;30.50;67.50;;;;;;5068824;28;20413;-88
2022/07/19 09:39:51;;;;;;;1.50;1.40;;;30.60;66.60;;;;;;5068167;28;20409;-88
2022/07/19 09:42:20;;;;;;;1.40;1.30;;;30.70;65.10;;;;;;5069366;28;20441;-88
2022/07/19 09:44:45;;;;;;;27.43;2.40;;;30.90;64.70;;;;;;5069502;28;20512;-87
2022/07/19 09:47:11;;;;;;;1.70;1.63;;;30.90;65.30;;;;;;5068529;28;20551;-88
2022/07/19 09:49:37;;;;;;;1.60;1.50;;;31.10;64.60;;;;;;5068972;28;20202;-87
2022/07/19 09:52:03;;;;;;;2.20;1.80;;;31.10;65.10;;;;;;5068728;28;20409;-87
2022/07/19 09:54:31;;;;;;;2.50;1.50;;;31.20;63.50;;;;;;5068874;28;20464;-88
2022/07/19 09:56:57;;;;;;;1.23;1.13;;;31.30;64.30;;;;;;5068698;28;20178;-88
2022/07/19 09:59:24;;;;;;;2.97;1.30;;;31.30;64.40;;;;;;5070192;28;20433;-87
2022/07/19 10:01:53;;;;;;;1.17;1.17;;;31.40;64.40;;;;;;5069315;28;20406;-88
2022/07/19 10:04:22;;;;;;;1.60;1.50;;;31.50;64.80;;;;;;5069193;28;20423;-87
2022/07/19 10:06:50;;;;;;;2.63;1.67;;;31.70;63.90;;;;;;5064265;28;20458;-87
2022/07/19 10:09:18;;;;;;;3.07;1.20;;;31.80;62.60;;;;;;5068755;28;20951;-88
2022/07/19 10:11:44;;;;;;;1.40;1.37;;;32.00;61.40;;;;;;5069331;28;20472;-87
2022/07/19 10:14:11;;;;;;;1.30;1.03;;;32.10;62.00;;;;;;5069013;28;20971;-88
2022/07/19 10:16:52;;;;;;;1.23;1.13;;;32.20;62.50;;;;;;5068968;28;20182;-88
2022/07/19 10:19:22;;;;;;;2.17;1.63;;;32.30;62.80;;;;;;5068206;28;20441;-88
2022/07/19 10:21:49;;;;;;;1.03;0.93;;;32.30;62.20;;;;;;5067999;28;20437;-88
2022/07/19 10:24:41;;;;;;;1.47;1.30;;;32.50;61.70;;;;;;5064633;28;20422;-88
2022/07/19 10:27:07;;;;;;;2.00;1.33;;;32.70;60.90;;;;;;5064404;28;20417;-88
2022/07/19 10:29:33;;;;;;;1.60;1.27;;;32.80;59.90;;;;;;5060165;28;20603;-88
2022/07/19 10:32:04;;;;;;;2.77;1.97;;;32.90;60.80;;;;;;5072590;28;21018;-87
2022/07/19 10:34:30;;;;;;;1.10;1.00;;;33.00;59.30;;;;;;5072836;28;20583;-87
2022/07/19 10:36:56;;;;;;;1.60;1.20;;;33.10;58.90;;;;;;5071027;28;20417;-88
2022/07/19 10:39:26;;;;;;;1.07;1.03;;;33.10;58.70;;;;;;5061130;28;20202;-86
2022/07/19 10:42:19;;;;;;;2.17;1.83;;;33.20;58.40;;;;;;5059501;28;20513;-88
2022/07/19 10:44:56;;;;;;;1.90;1.30;;;33.20;58.10;;;;;;5074069;28;20409;-86
2022/07/19 10:47:22;;;;;;;1.20;1.10;;;33.30;58.10;;;;;;5061827;28;20494;-87
2022/07/19 10:49:48;;;;;;;4.50;2.00;;;33.30;59.00;;;;;;5072225;28;20517;-87
2022/07/19 10:52:33;;;;;;;1.30;1.20;;;33.30;57.90;;;;;;5071806;28;20784;-86
2022/07/19 10:55:22;;;;;;;1.40;1.00;;;33.50;59.00;;;;;;5073375;28;20432;-84
2022/07/19 10:58:07;;;;;;;2.60;1.63;;;33.60;58.10;;;;;;5071783;28;20440;-86
2022/07/19 11:00:41;;;;;;;1.47;0.80;;;33.70;57.30;;;;;;5072335;28;20406;-85
2022/07/19 11:03:22;;;;;;;8.23;1.63;;;33.80;58.30;;;;;;5071889;28;20779;-85
2022/07/19 11:05:54;;;;;;;1.17;1.10;;;33.90;57.90;;;;;;5067403;28;20434;-84
2022/07/19 11:08:39;;;;;;;1.17;1.07;;;34.10;59.30;;;;;;5060164;28;20469;-84
2022/07/19 11:11:11;;;;;;;1.73;1.23;;;34.20;58.10;;;;;;5072131;28;20556;-85
2022/07/19 11:13:38;;;;;;;5.80;2.20;;;34.40;57.40;;;;;;5071995;28;20461;-85
2022/07/19 11:16:05;;;;;;;1.40;1.30;;;34.50;56.30;;;;;;5071909;28;20417;-84
2022/07/19 11:18:32;;;;;;;1.90;1.43;;;34.60;56.30;;;;;;5072096;28;21008;-84
2022/07/19 11:21:03;;;;;;;2.33;1.80;;;34.80;56.20;;;;;;5071917;28;20464;-85
2022/07/19 11:23:31;;;;;;;1.07;0.97;;;34.90;55.90;;;;;;5072399;28;20467;-85
2022/07/19 11:26:08;;;;;;;1.77;1.20;;;35.00;55.60;;;;;;5058604;28;20520;-85
2022/07/19 11:28:34;;;;;;;2.67;1.47;;;35.00;56.10;;;;;;5072054;28;20487;-85
2022/07/19 11:31:00;;;;;;;1.10;1.00;;;35.00;56.50;;;;;;5060532;28;20459;-84
2022/07/19 11:33:26;;;;;;;3.07;1.53;;;35.00;54.90;;;;;;5073042;28;20469;-85
2022/07/19 11:36:00;;;;;;;1.43;1.27;;;35.00;55.00;;;;;;5072210;28;20278;-85
2022/07/19 11:38:46;;;;;;;4.07;1.63;;;35.00;54.80;;;;;;5073468;28;20238;-85
2022/07/19 11:41:21;;;;;;;1.23;1.23;;;35.10;53.80;;;;;;5071518;28;20410;-85
2022/07/19 11:43:57;;;;;;;1.83;1.73;;;35.20;55.30;;;;;;5071614;28;20417;-85
2022/07/19 11:46:28;;;;;;;1.87;1.43;;;35.30;54.80;;;;;;5071766;28;20421;-85
2022/07/19 11:48:59;;;;;;;0.87;0.87;;;35.40;55.10;;;;;;5071895;28;20449;-85
2022/07/19 11:51:25;;;;;;;2.00;1.63;;;35.50;54.90;;;;;;5071645;28;20428;-84
2022/07/19 11:53:54;;;;;;;1.53;1.17;;;35.60;55.90;;;;;;5071667;28;20465;-84
2022/07/19 11:56:28;;;;;;;1.20;1.10;;;35.70;55.80;;;;;;5071990;28;20934;-85
2022/07/19 11:58:55;;;;;;;5.27;1.57;;;35.80;55.70;;;;;;5071630;28;20808;-84
2022/07/19 12:01:27;;;;;;;1.50;1.40;;;36.00;56.50;;;;;;5071040;28;20409;-84
2022/07/19 12:04:03;;;;;;;1.83;1.37;;;36.10;56.80;;;;;;5071660;28;20420;-84
2022/07/19 12:06:45;;;;;;;0.90;0.80;;;36.20;57.60;;;;;;5071743;28;20443;-84
2022/07/19 12:09:19;;;;;;;1.83;1.47;;;36.20;55.20;;;;;;5071690;28;20888;-85
2022/07/19 12:11:47;;;;;;;1.50;1.40;;;36.20;54.30;;;;;;5071852;28;20911;-84
2022/07/19 12:14:24;;;;;;;1.17;1.07;;;36.20;54.40;;;;;;5071735;28;21013;-84
2022/07/19 12:17:09;;;;;;;1.10;1.00;;;36.20;53.10;;;;;;5071835;28;20417;-84
2022/07/19 12:19:35;;;;;;;1.20;0.97;;;36.10;53.40;;;;;;5071893;28;20647;-83
2022/07/19 12:22:01;;;;;;;1.10;0.90;;;36.20;53.50;;;;;;5073563;28;20413;-84
2022/07/19 12:24:29;;;;;;;1.40;1.30;;;36.30;54.70;;;;;;5071661;28;20183;-84
2022/07/19 12:27:00;;;;;;;1.10;1.10;;;36.40;53.50;;;;;;5072442;28;20171;-84
2022/07/19 12:29:28;;;;;;;4.00;2.30;;;36.50;53.90;;;;;;5071025;28;20510;-85
2022/07/19 12:32:00;;;;;;;1.17;1.07;;;36.60;53.30;;;;;;5070916;28;20456;-84
2022/07/19 12:34:26;;;;;;;1.20;1.10;;;36.70;53.70;;;;;;5071527;28;20594;-85
2022/07/19 12:36:52;;;;;;;1.00;1.00;;;36.80;52.50;;;;;;5071043;28;20414;-84
2022/07/19 12:39:19;;;;;;;2.20;1.30;;;36.90;53.00;;;;;;5070864;28;20429;-85
2022/07/19 12:42:02;;;;;;;1.03;1.00;;;37.00;52.30;;;;;;5071026;28;20923;-84
2022/07/19 12:44:28;;;;;;;1.10;1.00;;;37.10;52.80;;;;;;5072423;28;20440;-82
2022/07/19 12:46:55;;;;;;;1.53;1.33;;;37.20;52.00;;;;;;5070672;28;20870;-82
2022/07/19 12:49:20;;;;;;;1.43;1.37;;;37.20;52.70;;;;;;5070597;28;20289;-82
2022/07/19 12:51:46;;;;;;;1.20;0.97;;;37.30;53.80;;;;;;5069897;28;20461;-82
2022/07/19 12:54:13;;;;;;;1.10;1.00;;;37.40;53.90;;;;;;5070214;28;20202;-81